sensor_id;sensor_type;location;lat;lon;timestamp;pressure;altitude;pressure_sealevel;temperature;humidity
55289;BME280;41154;45.394;5.734;2023-04-28T00:01:20;97034.56;;;13.20;100.00
55289;BME280;41154;45.394;5.734;2023-04-28T00:03:46;97033.34;;;12.75;100.00
55289;BME280;41154;45.394;5.734;2023-04-28T00:06:12;97031.97;;;12.67;100.00
55289;BME280;41154;45.394;5.734;2023-04-28T00:08:39;97033.34;;;12.75;100.00
55289;BME280;41154;45.394;5.734;2023-04-28T00:11:09;97025.53;;;12.73;100.00
55289;BME280;41154;45.394;5.734;2023-04-28T00:13:36;97026.59;;;12.77;100.00
55289;BME280;41154;45.394;5.734;2023-04-28T00:16:01;97030.72;;;12.90;100.00
55289;BME280;41154;45.394;5.734;2023-04-28T00:18:27;97033.88;;;12.82;100.00
55289;BME280;41154;45.394;5.734;2023-04-28T00:20:54;97029.88;;;12.90;100.00
55289;BME280;41154;45.394;5.734;2023-04-28T00:23:20;97035.78;;;12.87;100.00
55289;BME280;41154;45.394;5.734;2023-04-28T00:25:50;97021.31;;;12.98;100.00
55289;BME280;41154;45.394;5.734;2023-04-28T00:28:16;97024.47;;;12.80;100.00
55289;BME280;41154;45.394;5.734;2023-04-28T00:30:42;97018.75;;;12.61;100.00
55289;BME280;41154;45.394;5.734;2023-04-28T00:33:08;97019.31;;;12.73;100.00
55289;BME280;41154;45.394;5.734;2023-04-28T00:35:34;97014.00;;;12.83;100.00
55289;BME280;41154;45.394;5.734;2023-04-28T00:37:59;97007.03;;;12.92;100.00
55289;BME280;41154;45.394;5.734;2023-04-28T00:40:32;97012.66;;;12.96;100.00
55289;BME280;41154;45.394;5.734;2023-04-28T00:42:58;97016.94;;;12.87;100.00
55289;BME280;41154;45.394;5.734;2023-04-28T00:45:24;97014.81;;;12.94;100.00
55289;BME280;41154;45.394;5.734;2023-04-28T00:47:49;97017.31;;;13.16;100.00
55289;BME280;41154;45.394;5.734;2023-04-28T00:50:15;97013.25;;;13.03;100.00
55289;BME280;41154;45.394;5.734;2023-04-28T00:52:42;97008.13;;;12.97;100.00
55289;BME280;41154;45.394;5.734;2023-04-28T00:55:08;97006.53;;;13.16;100.00
55289;BME280;41154;45.394;5.734;2023-04-28T00:57:35;97007.16;;;13.39;100.00
55289;BME280;41154;45.394;5.734;2023-04-28T01:00:01;97009.75;;;13.08;100.00
55289;BME280;41154;45.394;5.734;2023-04-28T01:02:27;97002.72;;;12.97;100.00
55289;BME280;41154;45.394;5.734;2023-04-28T01:04:55;97003.78;;;12.95;100.00
55289;BME280;41154;45.394;5.734;2023-04-28T01:07:22;97000.63;;;13.29;100.00
55289;BME280;41154;45.394;5.734;2023-04-28T01:09:48;97001.47;;;13.35;100.00
55289;BME280;41154;45.394;5.734;2023-04-28T01:12:17;96994.44;;;13.19;100.00
55289;BME280;41154;45.394;5.734;2023-04-28T01:14:48;96993.59;;;13.03;100.00
55289;BME280;41154;45.394;5.734;2023-04-28T01:17:14;96992.56;;;13.29;100.00
55289;BME280;41154;45.394;5.734;2023-04-28T01:19:40;96991.47;;;13.20;100.00
55289;BME280;41154;45.394;5.734;2023-04-28T01:22:06;96990.59;;;12.99;100.00
55289;BME280;41154;45.394;5.734;2023-04-28T01:24:32;96982.25;;;13.01;100.00
55289;BME280;41154;45.394;5.734;2023-04-28T01:27:02;96985.78;;;13.01;100.00
55289;BME280;41154;45.394;5.734;2023-04-28T01:29:28;96979.31;;;12.97;100.00
55289;BME280;41154;45.394;5.734;2023-04-28T01:31:54;96983.88;;;12.97;100.00
55289;BME280;41154;45.394;5.734;2023-04-28T01:34:20;96980.09;;;12.98;100.00
55289;BME280;41154;45.394;5.734;2023-04-28T01:36:46;96988.97;;;12.88;100.00
55289;BME280;41154;45.394;5.734;2023-04-28T01:39:11;96994.88;;;12.85;100.00
55289;BME280;41154;45.394;5.734;2023-04-28T01:41:40;97000.00;;;12.86;100.00
55289;BME280;41154;45.394;5.734;2023-04-28T01:44:05;97001.66;;;13.03;100.00
55289;BME280;41154;45.394;5.734;2023-04-28T01:46:32;97001.63;;;12.92;100.00
55289;BME280;41154;45.394;5.734;2023-04-28T01:48:59;97004.38;;;13.08;100.00
55289;BME280;41154;45.394;5.734;2023-04-28T01:51:24;97010.25;;;12.94;100.00
55289;BME280;41154;45.394;5.734;2023-04-28T01:53:51;96996.50;;;12.86;100.00
55289;BME280;41154;45.394;5.734;2023-04-28T01:56:17;96992.97;;;12.80;100.00
55289;BME280;41154;45.394;5.734;2023-04-28T01:58:43;96988.19;;;12.98;100.00
55289;BME280;41154;45.394;5.734;2023-04-28T02:01:10;96988.38;;;12.70;100.00
55289;BME280;41154;45.394;5.734;2023-04-28T02:03:36;96987.00;;;12.63;100.00
55289;BME280;41154;45.394;5.734;2023-04-28T02:06:02;96988.06;;;12.56;100.00
55289;BME280;41154;45.394;5.734;2023-04-28T02:08:29;96991.25;;;12.48;100.00
55289;BME280;41154;45.394;5.734;2023-04-28T02:10:56;96987.72;;;12.37;100.00
55289;BME280;41154;45.394;5.734;2023-04-28T02:13:22;96982.69;;;12.62;100.00
55289;BME280;41154;45.394;5.734;2023-04-28T02:15:48;96996.56;;;12.38;100.00
55289;BME280;41154;45.394;5.734;2023-04-28T02:18:14;96989.53;;;12.27;100.00
55289;BME280;41154;45.394;5.734;2023-04-28T02:20:40;97004.03;;;12.26;100.00
55289;BME280;41154;45.394;5.734;2023-04-28T02:23:07;97004.50;;;12.12;100.00
55289;BME280;41154;45.394;5.734;2023-04-28T02:25:33;96998.81;;;12.03;100.00
55289;BME280;41154;45.394;5.734;2023-04-28T02:27:59;96993.72;;;12.07;100.00
55289;BME280;41154;45.394;5.734;2023-04-28T02:30:25;96987.28;;;12.08;100.00
55289;BME280;41154;45.394;5.734;2023-04-28T02:32:50;96990.97;;;11.97;100.00
55289;BME280;41154;45.394;5.734;2023-04-28T02:35:16;96993.44;;;11.71;100.00
55289;BME280;41154;45.394;5.734;2023-04-28T02:37:42;96996.94;;;11.72;100.00
55289;BME280;41154;45.394;5.734;2023-04-28T02:40:08;96993.66;;;11.64;100.00
55289;BME280;41154;45.394;5.734;2023-04-28T02:42:34;96997.13;;;11.60;100.00
55289;BME280;41154;45.394;5.734;2023-04-28T02:44:59;96997.88;;;11.87;100.00
55289;BME280;41154;45.394;5.734;2023-04-28T02:47:25;96997.13;;;11.60;100.00
55289;BME280;41154;45.394;5.734;2023-04-28T02:49:51;97003.56;;;11.59;100.00
55289;BME280;41154;45.394;5.734;2023-04-28T02:52:16;97007.78;;;11.49;100.00
55289;BME280;41154;45.394;5.734;2023-04-28T02:54:42;97012.56;;;11.42;100.00
55289;BME280;41154;45.394;5.734;2023-04-28T02:57:08;97005.16;;;11.27;100.00
55289;BME280;41154;45.394;5.734;2023-04-28T02:59:34;97023.09;;;11.22;100.00
55289;BME280;41154;45.394;5.734;2023-04-28T03:02:00;97025.59;;;11.28;100.00
55289;BME280;41154;45.394;5.734;2023-04-28T03:04:26;97026.63;;;11.55;100.00
55289;BME280;41154;45.394;5.734;2023-04-28T03:06:52;97020.94;;;11.83;100.00
55289;BME280;41154;45.394;5.734;2023-04-28T03:09:18;97017.09;;;11.74;100.00
55289;BME280;41154;45.394;5.734;2023-04-28T03:11:45;97015.06;;;11.54;100.00
55289;BME280;41154;45.394;5.734;2023-04-28T03:14:11;97021.16;;;11.44;100.00
55289;BME280;41154;45.394;5.734;2023-04-28T03:16:37;97011.44;;;11.38;100.00
55289;BME280;41154;45.394;5.734;2023-04-28T03:19:03;97004.94;;;11.34;100.00
55289;BME280;41154;45.394;5.734;2023-04-28T03:21:28;97004.75;;;11.13;100.00
55289;BME280;41154;45.394;5.734;2023-04-28T03:23:55;97016.50;;;11.07;100.00
55289;BME280;41154;45.394;5.734;2023-04-28T03:26:21;97022.41;;;11.09;100.00
55289;BME280;41154;45.394;5.734;2023-04-28T03:28:48;97032.06;;;11.05;100.00
55289;BME280;41154;45.394;5.734;2023-04-28T03:31:14;97028.75;;;10.98;100.00
55289;BME280;41154;45.394;5.734;2023-04-28T03:33:40;97037.88;;;10.97;100.00
55289;BME280;41154;45.394;5.734;2023-04-28T03:36:08;97052.56;;;11.17;100.00
55289;BME280;41154;45.394;5.734;2023-04-28T03:38:34;97042.25;;;11.03;100.00
55289;BME280;41154;45.394;5.734;2023-04-28T03:41:00;97052.19;;;11.30;100.00
55289;BME280;41154;45.394;5.734;2023-04-28T03:43:28;97050.59;;;11.34;100.00
55289;BME280;41154;45.394;5.734;2023-04-28T03:46:16;97046.50;;;10.99;100.00
55289;BME280;41154;45.394;5.734;2023-04-28T03:48:42;97043.59;;;11.06;100.00
55289;BME280;41154;45.394;5.734;2023-04-28T03:51:10;97044.56;;;10.94;100.00
55289;BME280;41154;45.394;5.734;2023-04-28T03:53:36;97031.69;;;10.96;100.00
55289;BME280;41154;45.394;5.734;2023-04-28T03:56:03;97037.88;;;10.97;100.00
55289;BME280;41154;45.394;5.734;2023-04-28T03:58:30;97050.59;;;11.07;100.00
55289;BME280;41154;45.394;5.734;2023-04-28T04:00:56;97053.75;;;10.99;100.00
55289;BME280;41154;45.394;5.734;2023-04-28T04:03:22;97047.47;;;11.15;100.00
55289;BME280;41154;45.394;5.734;2023-04-28T04:05:50;97058.56;;;11.24;100.00
55289;BME280;41154;45.394;5.734;2023-04-28T04:08:16;97061.41;;;11.39;100.00
55289;BME280;41154;45.394;5.734;2023-04-28T04:10:42;97060.13;;;11.20;100.00
55289;BME280;41154;45.394;5.734;2023-04-28T04:13:07;97057.81;;;11.06;100.00
55289;BME280;41154;45.394;5.734;2023-04-28T04:15:33;97047.53;;;10.98;100.00
55289;BME280;41154;45.394;5.734;2023-04-28T04:17:59;97048.41;;;11.04;100.00
55289;BME280;41154;45.394;5.734;2023-04-28T04:20:30;97044.97;;;11.08;100.00
55289;BME280;41154;45.394;5.734;2023-04-28T04:22:56;97047.41;;;11.10;100.00
55289;BME280;41154;45.394;5.734;2023-04-28T04:25:21;97036.44;;;10.89;100.00
55289;BME280;41154;45.394;5.734;2023-04-28T04:27:47;97023.81;;;11.12;100.00
55289;BME280;41154;45.394;5.734;2023-04-28T04:30:14;97021.53;;;10.99;100.00
55289;BME280;41154;45.394;5.734;2023-04-28T04:32:39;97015.50;;;10.86;100.00
55289;BME280;41154;45.394;5.734;2023-04-28T04:35:05;97018.53;;;10.95;100.00
55289;BME280;41154;45.394;5.734;2023-04-28T04:37:32;97022.78;;;10.91;100.00
55289;BME280;41154;45.394;5.734;2023-04-28T04:40:00;97023.28;;;10.88;100.00
55289;BME280;41154;45.394;5.734;2023-04-28T04:42:31;97024.13;;;10.93;100.00
55289;BME280;41154;45.394;5.734;2023-04-28T04:45:20;97021.28;;;11.00;100.00
55289;BME280;41154;45.394;5.734;2023-04-28T04:47:47;97002.25;;;10.79;100.00
55289;BME280;41154;45.394;5.734;2023-04-28T04:50:13;97016.66;;;10.73;100.00
55289;BME280;41154;45.394;5.734;2023-04-28T04:52:39;97017.50;;;10.74;100.00
55289;BME280;41154;45.394;5.734;2023-04-28T04:55:06;97021.16;;;10.90;100.00
55289;BME280;41154;45.394;5.734;2023-04-28T04:57:32;97019.84;;;10.92;100.00
55289;BME280;41154;45.394;5.734;2023-04-28T05:00:08;97017.72;;;10.94;100.00
55289;BME280;41154;45.394;5.734;2023-04-28T05:02:35;97012.59;;;10.93;100.00
55289;BME280;41154;45.394;5.734;2023-04-28T05:05:03;97017.78;;;10.77;100.00
55289;BME280;41154;45.394;5.734;2023-04-28T05:07:29;97038.22;;;10.78;100.00
55289;BME280;41154;45.394;5.734;2023-04-28T05:09:54;97042.75;;;10.78;100.00
55289;BME280;41154;45.394;5.734;2023-04-28T05:12:20;97043.00;;;10.76;100.00
55289;BME280;41154;45.394;5.734;2023-04-28T05:14:46;97041.66;;;11.01;100.00
55289;BME280;41154;45.394;5.734;2023-04-28T05:17:13;97054.00;;;10.97;100.00
55289;BME280;41154;45.394;5.734;2023-04-28T05:19:40;97044.56;;;10.94;100.00
55289;BME280;41154;45.394;5.734;2023-04-28T05:22:06;97050.25;;;10.76;100.00
55289;BME280;41154;45.394;5.734;2023-04-28T05:24:34;97044.16;;;11.08;100.00
55289;BME280;41154;45.394;5.734;2023-04-28T05:27:01;97038.44;;;10.99;100.00
55289;BME280;41154;45.394;5.734;2023-04-28T05:29:27;97036.41;;;11.11;100.00
55289;BME280;41154;45.394;5.734;2023-04-28T05:31:52;97039.41;;;11.42;100.00
55289;BME280;41154;45.394;5.734;2023-04-28T05:34:21;97051.25;;;11.74;100.00
55289;BME280;41154;45.394;5.734;2023-04-28T05:36:46;97049.59;;;12.00;100.00
55289;BME280;41154;45.394;5.734;2023-04-28T05:39:12;97042.56;;;11.94;100.00
55289;BME280;41154;45.394;5.734;2023-04-28T05:41:39;97036.03;;;12.22;100.00
55289;BME280;41154;45.394;5.734;2023-04-28T05:44:05;97042.69;;;12.09;100.00
55289;BME280;41154;45.394;5.734;2023-04-28T05:46:32;97035.47;;;12.20;100.00
55289;BME280;41154;45.394;5.734;2023-04-28T05:48:59;97043.31;;;12.27;100.00
55289;BME280;41154;45.394;5.734;2023-04-28T05:51:26;97047.44;;;12.45;100.00
55289;BME280;41154;45.394;5.734;2023-04-28T05:53:52;97046.50;;;12.71;100.00
55289;BME280;41154;45.394;5.734;2023-04-28T05:56:19;97059.94;;;13.35;100.00
55289;BME280;41154;45.394;5.734;2023-04-28T05:58:49;97058.31;;;13.34;100.00
55289;BME280;41154;45.394;5.734;2023-04-28T06:01:15;97058.91;;;14.08;100.00
55289;BME280;41154;45.394;5.734;2023-04-28T06:03:41;97062.41;;;15.20;100.00
55289;BME280;41154;45.394;5.734;2023-04-28T06:06:08;97062.03;;;18.27;100.00
55289;BME280;41154;45.394;5.734;2023-04-28T06:08:34;97065.09;;;20.72;94.89
55289;BME280;41154;45.394;5.734;2023-04-28T06:11:03;97075.03;;;20.14;94.84
55289;BME280;41154;45.394;5.734;2023-04-28T06:13:28;97057.78;;;22.09;82.15
55289;BME280;41154;45.394;5.734;2023-04-28T06:15:55;97056.31;;;23.87;74.77
55289;BME280;41154;45.394;5.734;2023-04-28T06:18:21;97070.38;;;21.17;82.52
55289;BME280;41154;45.394;5.734;2023-04-28T06:20:49;97062.81;;;18.27;100.00
55289;BME280;41154;45.394;5.734;2023-04-28T06:23:15;97061.97;;;18.46;100.00
55289;BME280;41154;45.394;5.734;2023-04-28T06:25:45;97063.31;;;18.16;100.00
55289;BME280;41154;45.394;5.734;2023-04-28T06:28:13;97060.41;;;17.74;100.00
55289;BME280;41154;45.394;5.734;2023-04-28T06:30:39;97058.84;;;19.72;95.14
55289;BME280;41154;45.394;5.734;2023-04-28T06:33:05;97061.84;;;18.51;100.00
55289;BME280;41154;45.394;5.734;2023-04-28T06:35:32;97065.56;;;17.56;100.00
55289;BME280;41154;45.394;5.734;2023-04-28T06:38:01;97057.84;;;19.68;95.27
55289;BME280;41154;45.394;5.734;2023-04-28T06:40:28;97071.94;;;19.48;96.75
55289;BME280;41154;45.394;5.734;2023-04-28T06:42:56;97072.63;;;23.32;76.20
55289;BME280;41154;45.394;5.734;2023-04-28T06:45:34;97082.31;;;21.39;81.32
55289;BME280;41154;45.394;5.734;2023-04-28T06:47:59;97082.38;;;20.99;82.83
55289;BME280;41154;45.394;5.734;2023-04-28T06:50:25;97082.25;;;20.41;88.98
55289;BME280;41154;45.394;5.734;2023-04-28T06:52:51;97080.50;;;21.17;87.84
55289;BME280;41154;45.394;5.734;2023-04-28T06:55:17;97067.72;;;22.31;82.17
55289;BME280;41154;45.394;5.734;2023-04-28T06:57:43;97081.59;;;21.07;80.80
55289;BME280;41154;45.394;5.734;2023-04-28T07:00:10;97083.97;;;21.58;89.58
55289;BME280;41154;45.394;5.734;2023-04-28T07:02:37;97080.91;;;20.93;86.82
55289;BME280;41154;45.394;5.734;2023-04-28T07:05:03;97087.28;;;20.57;87.63
55289;BME280;41154;45.394;5.734;2023-04-28T07:07:29;97087.34;;;20.97;92.19
55289;BME280;41154;45.394;5.734;2023-04-28T07:09:55;97082.56;;;23.67;74.28
55289;BME280;41154;45.394;5.734;2023-04-28T07:12:21;97080.72;;;20.04;86.25
55289;BME280;41154;45.394;5.734;2023-04-28T07:14:47;97082.47;;;20.00;92.64
55289;BME280;41154;45.394;5.734;2023-04-28T07:17:15;97085.88;;;20.91;87.29
55289;BME280;41154;45.394;5.734;2023-04-28T07:19:41;97082.38;;;22.00;83.13
55289;BME280;41154;45.394;5.734;2023-04-28T07:22:06;97087.34;;;22.07;80.17
55289;BME280;41154;45.394;5.734;2023-04-28T07:24:32;97089.22;;;23.57;74.38
55289;BME280;41154;45.394;5.734;2023-04-28T07:26:58;97095.63;;;23.40;73.70
55289;BME280;41154;45.394;5.734;2023-04-28T07:29:23;97099.91;;;21.82;78.33
55289;BME280;41154;45.394;5.734;2023-04-28T07:31:49;97094.28;;;21.96;77.75
55289;BME280;41154;45.394;5.734;2023-04-28T07:34:15;97092.00;;;22.24;78.65
55289;BME280;41154;45.394;5.734;2023-04-28T07:36:41;97101.47;;;25.39;68.70
55289;BME280;41154;45.394;5.734;2023-04-28T07:39:07;97103.97;;;25.32;67.95
55289;BME280;41154;45.394;5.734;2023-04-28T07:41:38;97107.38;;;23.11;74.27
55289;BME280;41154;45.394;5.734;2023-04-28T07:44:05;97110.13;;;22.55;76.79
55289;BME280;41154;45.394;5.734;2023-04-28T07:46:33;97110.78;;;22.52;75.80
55289;BME280;41154;45.394;5.734;2023-04-28T07:48:59;97103.75;;;23.58;73.03
55289;BME280;41154;45.394;5.734;2023-04-28T07:51:25;97106.13;;;22.00;77.56
55289;BME280;41154;45.394;5.734;2023-04-28T07:53:51;97108.31;;;22.68;75.50
55289;BME280;41154;45.394;5.734;2023-04-28T07:56:17;97103.72;;;22.42;73.32
55289;BME280;41154;45.394;5.734;2023-04-28T07:58:43;97098.91;;;23.84;66.71
55289;BME280;41154;45.394;5.734;2023-04-28T08:01:09;97106.31;;;22.86;74.65
55289;BME280;41154;45.394;5.734;2023-04-28T08:03:36;97125.97;;;20.36;80.44
55289;BME280;41154;45.394;5.734;2023-04-28T08:06:02;97112.78;;;19.70;84.34
55289;BME280;41154;45.394;5.734;2023-04-28T08:08:29;97108.13;;;19.20;87.11
55289;BME280;41154;45.394;5.734;2023-04-28T08:10:54;97094.81;;;19.69;84.93
55289;BME280;41154;45.394;5.734;2023-04-28T08:13:20;97097.94;;;22.00;76.46
55289;BME280;41154;45.394;5.734;2023-04-28T08:15:47;97105.59;;;20.34;81.14
55289;BME280;41154;45.394;5.734;2023-04-28T08:18:12;97089.81;;;19.63;87.74
55289;BME280;41154;45.394;5.734;2023-04-28T08:20:38;97094.81;;;21.23;83.48
55289;BME280;41154;45.394;5.734;2023-04-28T08:23:04;97097.31;;;22.85;76.06
55289;BME280;41154;45.394;5.734;2023-04-28T08:25:30;97093.38;;;23.42;73.10
55289;BME280;41154;45.394;5.734;2023-04-28T08:27:56;97095.81;;;23.86;70.39
55289;BME280;41154;45.394;5.734;2023-04-28T08:30:21;97096.41;;;23.71;71.18
55289;BME280;41154;45.394;5.734;2023-04-28T08:32:47;97099.41;;;22.41;78.19
55289;BME280;41154;45.394;5.734;2023-04-28T08:35:13;97096.19;;;23.25;77.45
55289;BME280;41154;45.394;5.734;2023-04-28T08:37:40;97098.97;;;24.30;67.11
55289;BME280;41154;45.394;5.734;2023-04-28T08:40:06;97104.69;;;22.37;76.04
55289;BME280;41154;45.394;5.734;2023-04-28T08:42:36;97115.00;;;21.22;78.04
55289;BME280;41154;45.394;5.734;2023-04-28T08:45:03;97109.44;;;20.87;82.14
55289;BME280;41154;45.394;5.734;2023-04-28T08:47:38;97110.13;;;20.38;85.91
55289;BME280;41154;45.394;5.734;2023-04-28T08:50:11;97112.09;;;20.24;86.40
55289;BME280;41154;45.394;5.734;2023-04-28T08:52:39;97120.56;;;20.68;84.22
55289;BME280;41154;45.394;5.734;2023-04-28T08:55:11;97117.53;;;20.24;83.43
55289;BME280;41154;45.394;5.734;2023-04-28T08:57:38;97125.31;;;21.33;78.21
55289;BME280;41154;45.394;5.734;2023-04-28T09:00:07;97122.16;;;21.00;81.03
55289;BME280;41154;45.394;5.734;2023-04-28T09:02:33;97124.41;;;19.99;84.37
55289;BME280;41154;45.394;5.734;2023-04-28T09:05:02;97125.13;;;20.81;84.24
55289;BME280;41154;45.394;5.734;2023-04-28T09:07:29;97118.25;;;22.81;75.76
55289;BME280;41154;45.394;5.734;2023-04-28T09:10:20;97123.72;;;23.28;72.45
55289;BME280;41154;45.394;5.734;2023-04-28T09:12:47;97129.25;;;21.67;79.94
55289;BME280;41154;45.394;5.734;2023-04-28T09:15:30;97136.50;;;22.51;75.45
55289;BME280;41154;45.394;5.734;2023-04-28T09:17:57;97133.31;;;22.40;74.85
55289;BME280;41154;45.394;5.734;2023-04-28T09:20:28;97131.56;;;20.85;82.19
55289;BME280;41154;45.394;5.734;2023-04-28T09:22:55;97129.69;;;21.43;80.25
55289;BME280;41154;45.394;5.734;2023-04-28T09:25:22;97121.09;;;22.02;77.51
55289;BME280;41154;45.394;5.734;2023-04-28T09:27:50;97123.91;;;22.76;76.01
55289;BME280;41154;45.394;5.734;2023-04-28T09:30:17;97124.59;;;21.77;80.20
55289;BME280;41154;45.394;5.734;2023-04-28T09:32:43;97124.22;;;20.40;84.63
55289;BME280;41154;45.394;5.734;2023-04-28T09:35:09;97111.44;;;22.14;80.08
55289;BME280;41154;45.394;5.734;2023-04-28T09:37:35;97112.88;;;21.10;84.75
55289;BME280;41154;45.394;5.734;2023-04-28T09:40:11;97096.25;;;21.37;85.91
55289;BME280;41154;45.394;5.734;2023-04-28T09:42:39;97087.97;;;23.25;77.97
55289;BME280;41154;45.394;5.734;2023-04-28T09:45:09;97078.69;;;21.87;79.94
55289;BME280;41154;45.394;5.734;2023-04-28T09:47:40;97072.72;;;21.77;79.76
55289;BME280;41154;45.394;5.734;2023-04-28T09:50:07;97074.97;;;22.01;81.79
55289;BME280;41154;45.394;5.734;2023-04-28T09:52:37;97067.66;;;22.96;76.65
55289;BME280;41154;45.394;5.734;2023-04-28T09:55:04;97063.25;;;22.09;80.29
55289;BME280;41154;45.394;5.734;2023-04-28T09:57:32;97055.53;;;23.14;75.63
55289;BME280;41154;45.394;5.734;2023-04-28T09:59:59;97064.44;;;23.32;74.05
55289;BME280;41154;45.394;5.734;2023-04-28T10:02:25;97060.06;;;21.89;79.41
55289;BME280;41154;45.394;5.734;2023-04-28T10:04:51;97069.03;;;22.07;80.85
55289;BME280;41154;45.394;5.734;2023-04-28T10:07:18;97071.56;;;22.21;81.31
55289;BME280;41154;45.394;5.734;2023-04-28T10:09:50;97079.56;;;22.53;80.11
55289;BME280;41154;45.394;5.734;2023-04-28T10:12:17;97080.03;;;21.24;83.05
55289;BME280;41154;45.394;5.734;2023-04-28T10:14:43;97088.63;;;22.01;83.70
55289;BME280;41154;45.394;5.734;2023-04-28T10:17:10;97077.88;;;22.13;92.20
55289;BME280;41154;45.394;5.734;2023-04-28T10:19:39;97094.41;;;21.73;90.91
55289;BME280;41154;45.394;5.734;2023-04-28T10:27:41;97084.50;;;21.11;91.16
55289;BME280;41154;45.394;5.734;2023-04-28T10:30:20;97078.69;;;21.79;88.55
55289;BME280;41154;45.394;5.734;2023-04-28T10:32:46;97069.50;;;21.92;90.19
55289;BME280;41154;45.394;5.734;2023-04-28T10:38:10;97062.16;;;21.93;90.94
55289;BME280;41154;45.394;5.734;2023-04-28T10:43:05;97053.31;;;21.61;92.84
55289;BME280;41154;45.394;5.734;2023-04-28T10:58:48;97045.09;;;22.13;88.60
55289;BME280;41154;45.394;5.734;2023-04-28T11:19:26;97021.59;;;22.21;93.56
55289;BME280;41154;45.394;5.734;2023-04-28T11:21:55;97028.53;;;22.10;88.51
55289;BME280;41154;45.394;5.734;2023-04-28T11:24:25;97025.53;;;22.58;98.86
55289;BME280;41154;45.394;5.734;2023-04-28T11:26:51;97025.63;;;22.15;92.56
55289;BME280;41154;45.394;5.734;2023-04-28T11:29:32;97023.56;;;22.03;97.37
55289;BME280;41154;45.394;5.734;2023-04-28T11:31:58;97014.28;;;21.86;94.26
55289;BME280;41154;45.394;5.734;2023-04-28T11:34:24;97007.34;;;21.89;94.55
55289;BME280;41154;45.394;5.734;2023-04-28T11:36:50;97007.84;;;22.56;90.65
55289;BME280;41154;45.394;5.734;2023-04-28T11:39:16;97005.28;;;22.89;88.64
55289;BME280;41154;45.394;5.734;2023-04-28T11:41:49;96986.84;;;22.39;94.90
55289;BME280;41154;45.394;5.734;2023-04-28T11:44:17;96982.03;;;22.74;91.76
55289;BME280;41154;45.394;5.734;2023-04-28T11:46:46;96973.13;;;22.86;90.92
55289;BME280;41154;45.394;5.734;2023-04-28T11:49:15;96968.81;;;23.06;92.97
55289;BME280;41154;45.394;5.734;2023-04-28T11:51:41;96968.97;;;22.80;93.87
55289;BME280;41154;45.394;5.734;2023-04-28T11:54:09;96965.75;;;22.78;91.19
55289;BME280;41154;45.394;5.734;2023-04-28T11:56:41;96951.84;;;22.62;90.13
55289;BME280;41154;45.394;5.734;2023-04-28T11:59:08;96950.91;;;22.88;92.73
55289;BME280;41154;45.394;5.734;2023-04-28T12:01:52;96942.66;;;22.67;97.46
55289;BME280;41154;45.394;5.734;2023-04-28T12:09:31;96929.38;;;22.86;92.85
55289;BME280;41154;45.394;5.734;2023-04-28T12:11:59;96931.94;;;22.83;94.18
55289;BME280;41154;45.394;5.734;2023-04-28T12:14:27;96932.66;;;23.22;88.60
55289;BME280;41154;45.394;5.734;2023-04-28T12:16:54;96941.06;;;22.95;87.66
55289;BME280;41154;45.394;5.734;2023-04-28T12:19:21;96938.97;;;22.92;89.19
55289;BME280;41154;45.394;5.734;2023-04-28T12:22:03;96937.13;;;23.47;90.82
55289;BME280;41154;45.394;5.734;2023-04-28T12:24:29;96939.06;;;23.47;93.90
55289;BME280;41154;45.394;5.734;2023-04-28T12:27:14;96935.78;;;23.32;82.05
55289;BME280;41154;45.394;5.734;2023-04-28T12:29:41;96940.69;;;23.60;82.62
55289;BME280;41154;45.394;5.734;2023-04-28T12:32:09;96941.53;;;23.73;90.72
55289;BME280;41154;45.394;5.734;2023-04-28T12:34:36;96936.25;;;24.60;85.36
55289;BME280;41154;45.394;5.734;2023-04-28T12:37:03;96941.13;;;24.91;79.27
55289;BME280;41154;45.394;5.734;2023-04-28T12:39:31;96942.75;;;24.55;86.50
55289;BME280;41154;45.394;5.734;2023-04-28T12:41:57;96939.53;;;24.40;83.04
55289;BME280;41154;45.394;5.734;2023-04-28T12:44:34;96932.75;;;24.01;82.02
55289;BME280;41154;45.394;5.734;2023-04-28T12:47:05;96936.41;;;24.05;81.78
55289;BME280;41154;45.394;5.734;2023-04-28T12:49:32;96934.22;;;23.65;82.37
55289;BME280;41154;45.394;5.734;2023-04-28T12:51:58;96938.00;;;23.73;84.94
55289;BME280;41154;45.394;5.734;2023-04-28T12:54:24;96922.78;;;23.29;85.14
55289;BME280;41154;45.394;5.734;2023-04-28T12:56:50;96941.47;;;23.82;85.24
55289;BME280;41154;45.394;5.734;2023-04-28T12:59:15;96936.78;;;23.82;87.06
55289;BME280;41154;45.394;5.734;2023-04-28T13:01:41;96947.91;;;23.86;84.29
55289;BME280;41154;45.394;5.734;2023-04-28T13:04:07;96938.03;;;24.31;88.82
55289;BME280;41154;45.394;5.734;2023-04-28T13:06:35;96943.75;;;24.26;85.62
55289;BME280;41154;45.394;5.734;2023-04-28T13:09:01;96951.84;;;24.22;87.24
55289;BME280;41154;45.394;5.734;2023-04-28T13:11:28;96958.06;;;23.98;85.22
55289;BME280;41154;45.394;5.734;2023-04-28T13:13:54;96962.06;;;23.88;86.55
55289;BME280;41154;45.394;5.734;2023-04-28T13:16:22;96969.88;;;24.11;86.41
55289;BME280;41154;45.394;5.734;2023-04-28T13:18:49;96972.16;;;23.54;86.83
55289;BME280;41154;45.394;5.734;2023-04-28T13:21:16;96971.97;;;23.59;87.99
55289;BME280;41154;45.394;5.734;2023-04-28T13:23:42;96977.31;;;23.13;92.16
55289;BME280;41154;45.394;5.734;2023-04-28T13:26:07;96967.75;;;22.98;89.98
55289;BME280;41154;45.394;5.734;2023-04-28T13:28:33;96963.41;;;22.97;90.90
55289;BME280;41154;45.394;5.734;2023-04-28T13:30:59;96966.34;;;22.92;91.65
55289;BME280;41154;45.394;5.734;2023-04-28T13:33:24;96951.03;;;23.21;91.32
55289;BME280;41154;45.394;5.734;2023-04-28T13:35:56;96958.56;;;23.45;91.37
55289;BME280;41154;45.394;5.734;2023-04-28T13:38:22;96950.28;;;23.33;93.90
55289;BME280;41154;45.394;5.734;2023-04-28T13:40:49;96948.06;;;23.26;93.53
55289;BME280;41154;45.394;5.734;2023-04-28T13:43:14;96941.59;;;23.52;93.68